createdAt,value
2019-02-24T00:03:44.522Z,47.80
2019-02-24T00:08:49.255Z,48.00
2019-02-24T00:13:56.966Z,48.60
2019-02-24T00:19:05.783Z,48.00
2019-02-24T00:24:10.474Z,48.00
2019-02-24T00:29:16.849Z,48.00
2019-02-24T00:34:24.671Z,47.80
2019-02-24T00:39:31.026Z,47.90
2019-02-24T00:44:41.101Z,48.10
2019-02-24T00:49:47.383Z,48.10
2019-02-24T00:54:52.097Z,48.20
2019-02-24T01:00:00.099Z,49.10
2019-02-24T01:05:06.997Z,48.30
2019-02-24T01:10:12.103Z,48.40
2019-02-24T01:15:22.813Z,48.40
2019-02-24T01:20:30.661Z,48.50
2019-02-24T01:25:35.345Z,48.10
2019-02-24T01:30:45.453Z,48.10
2019-02-24T01:35:57.509Z,48.10
2019-02-24T01:41:02.306Z,48.30
2019-02-24T01:46:08.616Z,48.60
2019-02-24T01:51:14.414Z,48.60
2019-02-24T01:56:19.989Z,48.60
2019-02-24T02:01:32.137Z,48.70
2019-02-24T02:06:39.900Z,48.60
2019-02-24T02:11:46.298Z,48.60
2019-02-24T02:16:51.303Z,48.70
2019-02-24T02:21:56.050Z,48.50
2019-02-24T02:27:00.821Z,48.50
2019-02-24T02:32:05.930Z,48.50
2019-02-24T02:37:15.263Z,48.30
2019-02-24T02:42:22.057Z,48.50
2019-02-24T02:47:30.248Z,48.60
2019-02-24T02:52:38.230Z,48.60
2019-02-24T02:57:44.475Z,48.70
2019-02-24T03:02:49.205Z,48.90
2019-02-24T03:08:02.860Z,48.90
2019-02-24T03:13:07.538Z,48.90
2019-02-24T03:18:16.200Z,49.00
2019-02-24T03:23:22.424Z,49.00
2019-02-24T03:28:27.060Z,48.90
2019-02-24T03:33:31.728Z,49.00
2019-02-24T03:38:37.242Z,49.10
2019-02-24T03:43:50.335Z,49.00
2019-02-24T03:48:57.994Z,48.90
2019-02-24T03:54:04.345Z,48.80
2019-02-24T03:59:15.367Z,48.70
2019-02-24T04:04:19.165Z,48.50
2019-02-24T04:09:24.539Z,48.60
2019-02-24T04:14:29.437Z,48.90
2019-02-24T04:19:34.324Z,49.00
2019-02-24T04:24:41.861Z,48.90
2019-02-24T04:29:49.703Z,48.90
2019-02-24T04:34:54.835Z,49.00
2019-02-24T04:40:02.393Z,49.00
2019-02-24T04:45:08.724Z,49.10
2019-02-24T04:50:22.536Z,49.20
2019-02-24T04:55:27.427Z,49.30
2019-02-24T05:00:33.903Z,49.30
2019-02-24T05:05:49.204Z,49.30
2019-02-24T05:10:52.161Z,49.30
2019-02-24T05:15:57.043Z,49.30
2019-02-24T05:21:02.336Z,49.00
2019-02-24T05:26:08.493Z,49.10
2019-02-24T05:31:16.380Z,49.30
2019-02-24T05:36:21.053Z,49.50
2019-02-24T05:41:30.217Z,49.60
2019-02-24T05:46:34.848Z,49.60
2019-02-24T05:51:41.880Z,49.60
2019-02-24T05:56:46.520Z,49.50
2019-02-24T06:01:52.776Z,49.50
2019-02-24T06:07:01.863Z,49.50
2019-02-24T06:12:09.744Z,49.30
2019-02-24T06:17:15.665Z,49.10
2019-02-24T06:22:21.295Z,49.40
2019-02-24T06:27:27.273Z,49.40
2019-02-24T06:32:37.066Z,49.50
2019-02-24T06:37:43.332Z,49.50
2019-02-24T06:42:48.720Z,49.50
2019-02-24T06:48:00.285Z,49.60
2019-02-24T06:53:04.753Z,49.50
2019-02-24T06:58:10.797Z,49.60
2019-02-24T07:03:18.088Z,49.80
2019-02-24T07:08:22.981Z,49.90
2019-02-24T07:13:33.940Z,50.00
2019-02-24T07:18:43.048Z,50.30
2019-02-24T07:23:50.555Z,50.40
2019-02-24T11:10:03.933Z,47.50
2019-02-24T11:15:15.644Z,46.70
2019-02-24T11:20:20.651Z,46.80
2019-02-24T11:25:25.800Z,44.70
2019-02-24T11:30:30.675Z,44.70
2019-02-24T11:35:38.456Z,43.70
2019-02-24T11:40:45.737Z,45.30
2019-02-24T11:45:50.448Z,43.70
2019-02-24T11:50:58.423Z,44.80
2019-02-24T11:56:05.072Z,45.20
2019-02-24T12:01:09.845Z,45.20
2019-02-24T12:06:16.233Z,45.10
2019-02-24T12:11:24.272Z,45.10
2019-02-24T12:16:30.954Z,44.70
2019-02-24T12:21:41.577Z,44.70
2019-02-24T12:26:47.573Z,44.70
2019-02-24T12:31:56.756Z,44.60
2019-02-24T12:37:02.679Z,44.60
2019-02-24T12:42:07.874Z,45.10
2019-02-24T12:47:13.997Z,44.30
2019-02-24T12:52:20.685Z,43.60
2019-02-24T12:57:31.698Z,43.50
2019-02-24T13:02:36.774Z,43.50
2019-02-24T13:07:41.541Z,43.50
2019-02-24T13:12:47.813Z,43.50
2019-02-24T13:17:52.748Z,43.50
2019-02-24T13:22:57.699Z,42.90
2019-02-24T13:28:04.864Z,42.80
2019-02-24T13:33:10.703Z,42.80
2019-02-24T13:38:19.889Z,42.80
2019-02-24T13:43:27.399Z,42.30
2019-02-24T13:48:36.497Z,42.90
2019-02-24T13:53:48.293Z,42.30
2019-02-24T13:59:00.809Z,42.10
2019-02-24T14:04:05.661Z,42.10
2019-02-24T14:09:10.667Z,41.90
2019-02-24T14:14:16.190Z,41.80
2019-02-24T14:19:21.025Z,41.30
2019-02-24T14:24:28.698Z,41.30
2019-02-24T14:29:36.908Z,41.30
2019-02-24T14:34:41.704Z,41.10
2019-02-24T14:39:49.469Z,41.10
2019-02-24T14:44:55.574Z,41.10
2019-02-24T14:50:09.080Z,40.50
2019-02-24T14:55:15.580Z,40.10
2019-02-24T15:00:20.520Z,40.00
2019-02-24T15:05:26.762Z,39.80
2019-02-24T15:10:34.567Z,39.10
2019-02-24T15:15:39.941Z,38.80
2019-02-24T15:20:52.211Z,38.60
2019-02-24T15:25:57.214Z,38.70
2019-02-24T15:31:02.413Z,38.90
2019-02-24T15:36:12.761Z,38.70
2019-02-24T15:41:19.771Z,38.60
2019-02-24T15:46:27.007Z,38.50
2019-02-24T15:51:37.757Z,38.60
2019-02-24T15:56:51.904Z,38.70
2019-02-24T16:02:06.066Z,38.40
2019-02-24T16:07:11.000Z,37.80
2019-02-24T16:12:16.291Z,37.60
2019-02-24T16:17:24.476Z,37.30
2019-02-24T16:22:39.021Z,37.20
2019-02-24T16:27:56.076Z,37.40
2019-02-24T16:33:09.966Z,37.60
2019-02-24T16:38:08.260Z,37.30
2019-02-24T16:43:16.796Z,37.80
2019-02-24T16:48:27.661Z,38.10
2019-02-24T16:53:34.083Z,38.10
2019-02-24T16:58:39.318Z,38.60
2019-02-24T17:03:46.267Z,38.00
2019-02-24T17:14:51.037Z,38.30
2019-02-24T17:19:56.424Z,38.20
2019-02-24T17:25:05.269Z,38.20
2019-02-24T17:30:53.392Z,38.10
2019-02-24T17:46:55.736Z,37.70
2019-02-24T17:52:02.352Z,37.90
2019-02-24T17:57:08.129Z,38.00
2019-02-24T18:02:13.288Z,38.00
2019-02-24T18:07:18.508Z,38.10
2019-02-24T18:12:23.464Z,38.30
2019-02-24T18:17:29.264Z,38.50
2019-02-24T18:22:45.953Z,38.60
2019-02-24T18:27:51.804Z,38.70
2019-02-24T18:32:56.593Z,38.60
2019-02-24T18:38:02.506Z,38.30
2019-02-24T18:43:07.342Z,38.60
2019-02-24T18:48:13.827Z,38.90
2019-02-24T18:53:18.987Z,38.80
2019-02-24T18:58:25.763Z,38.90
2019-02-24T19:03:30.579Z,39.10
2019-02-24T19:08:35.457Z,39.20
2019-02-24T19:13:40.340Z,39.30
2019-02-24T19:18:45.455Z,39.40
2019-02-24T19:23:50.440Z,39.10
2019-02-24T19:28:56.764Z,39.00
2019-02-24T19:34:06.619Z,39.10
2019-02-24T19:39:14.309Z,39.20
2019-02-24T19:44:20.606Z,39.40
2019-02-24T19:49:26.994Z,39.50
2019-02-24T19:54:33.031Z,39.40
2019-02-24T19:59:37.724Z,39.40
2019-02-24T20:04:49.072Z,39.60
2019-02-24T20:09:54.268Z,39.90
2019-02-24T20:15:02.881Z,39.70
2019-02-24T20:20:10.192Z,39.80
2019-02-24T20:25:14.960Z,39.60
2019-02-24T20:30:22.963Z,39.70
2019-02-24T20:35:28.045Z,40.00
2019-02-24T20:40:32.981Z,40.00
2019-02-24T20:45:39.291Z,40.10
2019-02-24T20:50:44.356Z,40.90
2019-02-24T20:55:49.347Z,40.30
2019-02-24T21:00:56.920Z,40.90
2019-02-24T21:06:01.970Z,40.30
2019-02-24T21:11:06.708Z,40.20
2019-02-24T21:16:11.421Z,40.20
2019-02-24T21:21:16.433Z,40.20
2019-02-24T21:26:21.436Z,40.40
2019-02-24T21:31:26.389Z,40.40
2019-02-24T21:36:32.436Z,40.50
2019-02-24T21:41:37.775Z,40.50
2019-02-24T21:46:43.569Z,40.50
2019-02-24T21:51:50.286Z,40.50
2019-02-24T21:56:55.488Z,40.60
2019-02-24T22:02:00.414Z,40.60
2019-02-24T22:07:06.083Z,40.70
2019-02-24T22:12:11.506Z,40.80
2019-02-24T22:17:17.740Z,41.00
2019-02-24T22:22:22.490Z,41.10
2019-02-24T22:27:27.485Z,41.30
2019-02-24T22:32:32.292Z,41.30
2019-02-24T22:37:37.248Z,41.40
2019-02-24T22:42:43.548Z,41.30
2019-02-24T22:47:48.382Z,41.40
2019-02-24T22:52:54.600Z,41.80
2019-02-24T22:58:00.303Z,41.30
2019-02-24T23:03:06.008Z,41.20
2019-02-24T23:08:10.768Z,41.30
2019-02-24T23:13:17.047Z,41.30
2019-02-24T23:18:22.106Z,41.50
2019-02-24T23:23:26.790Z,41.80
2019-02-24T23:28:31.620Z,41.80
2019-02-24T23:33:38.994Z,41.70
2019-02-24T23:38:46.794Z,41.70
2019-02-24T23:43:52.792Z,41.70
2019-02-24T23:48:57.471Z,41.70
2019-02-24T23:54:02.998Z,41.70
2019-02-24T23:59:09.464Z,41.80
